Time;durP1;ratioP1;P1;durP2;ratioP2;P2;SDS_P1;SDS_P2;PMS_P1;PMS_P2;Temp;Humidity;BMP_temperature;BMP_pressure;BME280_temperature;BME280_humidity;BME280_pressure;Samples;Min_cycle;Max_cycle;Signal;HPM_P1;HPM_P2
2023/10/10 05:25:25;;;;;;;17.15;5.72;;;;;;;11.92;100.00;100728.97;5067646;28;20033;-69
2023/10/10 05:27:51;;;;;;;13.00;4.85;;;;;;;11.95;100.00;100725.16;5067921;28;20041;-69
2023/10/10 05:30:25;;;;;;;15.35;5.18;;;;;;;11.99;100.00;100723.78;5067635;28;20032;-69
2023/10/10 05:33:04;;;;;;;16.02;4.72;;;;;;;12.01;100.00;100721.81;5060397;28;20039;-69
2023/10/10 05:35:30;;;;;;;8.88;4.68;;;;;;;12.03;100.00;100725.13;5054251;28;20033;-70
2023/10/10 05:37:56;;;;;;;15.15;5.43;;;;;;;12.09;100.00;100728.94;5054671;28;20033;-72
2023/10/10 05:40:24;;;;;;;11.68;4.93;;;;;;;12.13;100.00;100730.28;5054573;28;20029;-71
2023/10/10 05:42:51;;;;;;;17.25;5.35;;;;;;;12.14;100.00;100732.78;5054386;28;20040;-71
2023/10/10 05:45:20;;;;;;;13.63;4.85;;;;;;;12.15;100.00;100737.09;5054307;28;20119;-71
2023/10/10 05:47:49;;;;;;;16.95;4.70;;;;;;;12.14;100.00;100730.09;5067549;28;20040;-58
2023/10/10 05:50:16;;;;;;;11.10;4.75;;;;;;;12.19;100.00;100740.25;5074316;28;20059;-58
2023/10/10 05:52:43;;;;;;;12.40;4.78;;;;;;;12.20;100.00;100737.44;5074394;28;20047;-59
2023/10/10 05:55:12;;;;;;;12.68;4.95;;;;;;;12.20;100.00;100737.44;5074050;28;20070;-59
2023/10/10 05:57:39;;;;;;;12.57;5.18;;;;;;;12.16;100.00;100738.78;5074296;28;20094;-58
2023/10/10 06:00:13;;;;;;;13.82;4.43;;;;;;;12.10;100.00;100741.28;5074260;28;20075;-58
2023/10/10 06:02:42;;;;;;;10.82;5.05;;;;;;;12.06;100.00;100737.28;5074164;28;20033;-59
2023/10/10 06:05:09;;;;;;;9.10;4.15;;;;;;;11.99;100.00;100742.47;5073845;28;20115;-59
2023/10/10 06:07:42;;;;;;;11.93;5.22;;;;;;;11.94;100.00;100742.19;5074031;28;20516;-59
2023/10/10 06:10:14;;;;;;;18.15;5.68;;;;;;;11.81;100.00;100742.69;5073941;28;20049;-58
2023/10/10 06:12:41;;;;;;;15.45;4.95;;;;;;;11.81;100.00;100748.03;5074048;28;20044;-58
2023/10/10 06:15:07;;;;;;;15.70;4.55;;;;;;;11.79;100.00;100744.66;5073720;28;20043;-58
2023/10/10 06:17:36;;;;;;;7.95;4.82;;;;;;;11.78;100.00;100745.66;5073870;28;20040;-55
2023/10/10 06:20:01;;;;;;;16.90;5.03;;;;;;;11.82;100.00;100756.88;5073884;28;20123;-57
2023/10/10 06:22:29;;;;;;;10.48;4.75;;;;;;;11.86;100.00;100755.50;5073542;28;20063;-58
2023/10/10 06:24:58;;;;;;;11.88;5.38;;;;;;;11.86;100.00;100758.19;5073345;28;20036;-59
2023/10/10 06:27:29;;;;;;;12.77;4.90;;;;;;;11.94;100.00;100763.53;5073477;28;20044;-58
2023/10/10 06:30:01;;;;;;;14.40;4.80;;;;;;;11.93;100.00;100764.50;5073736;28;20041;-57
2023/10/10 06:32:30;;;;;;;13.32;5.07;;;;;;;12.00;100.00;100770.88;5073470;28;20439;-57
2023/10/10 06:35:25;;;;;;;14.98;5.43;;;;;;;12.00;100.00;100768.19;5073283;28;20036;-58
2023/10/10 06:37:42;;;;;;;13.43;5.97;;;;;;;12.06;100.00;100770.19;5073330;28;20037;-57
2023/10/10 06:40:09;;;;;;;12.38;5.25;;;;;;;12.13;100.00;100771.16;5073443;28;20039;-52
2023/10/10 06:42:35;;;;;;;11.20;4.97;;;;;;;12.18;100.00;100771.47;5073403;28;20517;-55
2023/10/10 06:45:21;;;;;;;11.95;4.75;;;;;;;12.22;100.00;100769.31;5070903;28;20028;-52
2023/10/10 06:47:50;;;;;;;11.50;5.15;;;;;;;12.25;100.00;100776.97;5073373;28;20032;-55
2023/10/10 06:50:21;;;;;;;17.02;6.30;;;;;;;12.34;100.00;100767.94;5073190;28;20028;-56
2023/10/10 06:52:54;;;;;;;10.80;5.60;;;;;;;12.40;100.00;100769.91;5073139;28;20157;-55
2023/10/10 06:55:23;;;;;;;13.40;5.85;;;;;;;12.45;100.00;100772.06;5072831;28;20506;-54
2023/10/10 06:58:01;;;;;;;15.32;6.40;;;;;;;12.52;100.00;100772.19;5073008;28;20521;-53
2023/10/10 07:00:44;;;;;;;12.45;5.15;;;;;;;12.61;100.00;100779.19;5073240;28;20041;-52
2023/10/10 07:03:11;;;;;;;17.00;5.40;;;;;;;12.66;100.00;100784.84;5072748;28;20128;-53
2023/10/10 07:05:39;;;;;;;15.73;6.05;;;;;;;12.72;100.00;100774.31;5072969;28;20450;-53
2023/10/10 07:08:19;;;;;;;;;;;;;;;12.82;100.00;100783.94;5073259;28;20123;-55
2023/10/10 07:10:45;;;;;;;13.32;4.70;;;;;;;12.93;100.00;100780.88;5072673;28;19974;-54
2023/10/10 07:13:14;;;;;;;8.90;4.25;;;;;;;13.02;100.00;100779.81;5072601;28;20033;-52
2023/10/10 07:15:42;;;;;;;13.27;4.45;;;;;;;13.10;100.00;100782.44;5072597;28;20032;-56
2023/10/10 07:18:09;;;;;;;13.30;5.10;;;;;;;13.17;100.00;100778.06;5072697;28;20036;-56
2023/10/10 07:23:21;;;;;;;14.68;4.80;;;;;;;13.43;100.00;100783.09;5072403;28;20049;-52
2023/10/10 07:25:59;;;;;;;13.23;5.43;;;;;;;13.54;100.00;100789.84;5071541;28;20098;-54
2023/10/10 07:28:27;;;;;;;13.82;5.13;;;;;;;13.67;100.00;100797.28;5072538;28;20414;-54
2023/10/10 07:30:56;;;;;;;9.48;4.80;;;;;;;13.75;100.00;100798.03;5072307;28;20049;-56
2023/10/10 07:33:29;;;;;;;22.80;5.18;;;;;;;13.89;100.00;100804.47;5072086;28;20044;-52
2023/10/10 07:35:55;;;;;;;12.20;5.78;;;;;;;13.99;100.00;100793.50;5072290;28;20036;-54
2023/10/10 07:38:28;;;;;;;14.57;5.85;;;;;;;14.11;100.00;100805.44;5072333;28;20040;-55
2023/10/10 07:40:53;;;;;;;14.95;4.95;;;;;;;14.25;100.00;100803.78;5072391;28;20439;-52
2023/10/10 07:43:20;;;;;;;14.70;5.70;;;;;;;14.34;100.00;100803.53;5072030;28;20056;-53
2023/10/10 07:45:46;;;;;;;14.48;5.15;;;;;;;14.48;100.00;100803.72;5072143;28;20115;-55
2023/10/10 07:50:47;;;;;;;12.73;5.75;;;;;;;14.82;100.00;100806.66;5072116;28;20131;-54
2023/10/10 07:53:14;;;;;;;11.32;5.22;;;;;;;14.93;99.52;100814.22;5071621;28;20079;-57
2023/10/10 07:58:29;;;;;;;16.30;5.82;;;;;;;15.27;97.97;100801.19;5072050;28;20499;-54
2023/10/10 08:01:09;;;;;;;12.05;5.18;;;;;;;15.37;97.39;100810.56;5072039;28;20039;-54
2023/10/10 08:03:36;;;;;;;13.30;6.78;;;;;;;15.42;96.14;100802.78;5071765;28;20090;-56
2023/10/10 08:06:01;;;;;;;16.33;6.72;;;;;;;15.53;96.70;100808.69;5071841;28;20028;-57
2023/10/10 08:08:27;;;;;;;16.77;6.00;;;;;;;15.58;95.48;100800.84;5071971;28;20040;-55
2023/10/10 08:10:52;;;;;;;16.67;6.50;;;;;;;15.73;93.05;100804.34;5071717;28;20044;-58
2023/10/10 08:13:20;;;;;;;16.25;5.38;;;;;;;15.86;92.95;100799.09;5071638;28;20123;-54
2023/10/10 08:15:56;;;;;;;15.13;5.43;;;;;;;16.04;87.93;100805.81;5071905;28;20059;-57
2023/10/10 08:21:26;;;;;;;14.18;4.57;;;;;;;16.28;83.38;100803.50;5049197;28;20037;-57
2023/10/10 08:23:58;;;;;;;13.27;4.78;;;;;;;16.42;83.71;100792.84;5066921;28;20568;-56
2023/10/10 08:26:29;;;;;;;13.77;4.78;;;;;;;16.46;82.47;100788.75;5071748;28;20048;-56
2023/10/10 08:28:55;;;;;;;13.10;5.97;;;;;;;16.52;81.02;100787.94;5071859;28;20445;-56
2023/10/10 08:31:22;;;;;;;12.45;4.75;;;;;;;16.63;82.10;100794.63;5071787;28;20698;-56
2023/10/10 08:33:48;;;;;;;13.57;5.03;;;;;;;16.72;79.98;100798.84;5071271;28;20056;-55
2023/10/10 08:36:25;;;;;;;12.68;4.50;;;;;;;16.88;80.26;100790.41;5071715;28;20067;-55
2023/10/10 08:38:56;;;;;;;15.20;4.73;;;;;;;16.94;79.48;100786.91;5071780;28;20032;-55
2023/10/10 08:41:26;;;;;;;13.15;5.05;;;;;;;17.07;82.00;100784.25;5071703;28;20458;-55
2023/10/10 08:43:53;;;;;;;19.05;4.68;;;;;;;17.16;78.06;100784.09;5071263;28;20041;-56
2023/10/10 08:46:24;;;;;;;11.13;5.25;;;;;;;17.36;76.93;100793.03;5071532;28;20068;-53
2023/10/10 08:48:51;;;;;;;18.90;5.05;;;;;;;17.47;77.22;100789.72;5071673;28;20067;-55
2023/10/10 08:51:17;;;;;;;14.57;5.80;;;;;;;17.58;74.63;100781.03;5071458;28;20037;-57
2023/10/10 08:53:43;;;;;;;14.07;4.35;;;;;;;17.70;74.86;100786.66;5071190;28;20036;-58
2023/10/10 08:56:09;;;;;;;16.20;5.25;;;;;;;17.86;73.02;100786.25;5071514;28;20028;-56
2023/10/10 08:58:35;;;;;;;14.00;4.82;;;;;;;18.01;75.30;100788.75;5071363;28;20518;-56
2023/10/10 09:01:02;;;;;;;19.73;5.20;;;;;;;18.21;74.29;100793.28;5071479;28;20031;-57
2023/10/10 09:03:34;;;;;;;14.98;4.88;;;;;;;18.29;74.05;100779.56;5069961;28;20043;-57
2023/10/10 09:06:14;;;;;;;11.18;4.72;;;;;;;18.51;73.47;100785.53;5071315;28;20040;-57
2023/10/10 09:08:43;;;;;;;13.63;4.97;;;;;;;18.69;73.56;100786.53;5074086;28;20071;-58
2023/10/10 09:11:11;;;;;;;12.35;4.88;;;;;;;18.91;70.49;100794.34;5075087;28;20051;-52
2023/10/10 09:13:52;;;;;;;18.95;5.03;;;;;;;19.02;70.94;100780.16;5073564;28;20048;-53
2023/10/10 09:16:38;;;;;;;9.77;5.28;;;;;;;19.16;70.27;100778.22;5074948;28;20036;-54
2023/10/10 09:19:10;;;;;;;16.33;5.13;;;;;;;19.30;69.31;100776.25;5075052;28;20419;-57
2023/10/10 09:21:55;;;;;;;15.45;4.90;;;;;;;19.44;68.89;100775.16;5074759;28;20075;-56
2023/10/10 09:24:28;;;;;;;12.18;4.40;;;;;;;19.59;67.32;100777.56;5074663;28;20068;-53
2023/10/10 09:26:59;;;;;;;16.33;5.85;;;;;;;19.77;67.25;100778.44;5074790;28;20841;-57
2023/10/10 09:29:34;;;;;;;15.38;5.50;;;;;;;19.91;69.23;100781.03;5074904;28;20044;-54
2023/10/10 09:32:00;;;;;;;15.90;4.95;;;;;;;19.97;70.03;100775.56;5074574;28;20083;-55
2023/10/10 09:34:40;;;;;;;14.38;4.55;;;;;;;20.13;66.91;100778.75;5074391;28;20487;-58
2023/10/10 09:37:10;;;;;;;11.18;4.80;;;;;;;20.32;67.79;100778.53;5074602;28;20032;-54
2023/10/10 09:39:36;;;;;;;20.30;5.35;;;;;;;20.46;66.47;100779.25;5074708;28;20051;-62
2023/10/10 09:42:22;;;;;;;13.15;5.35;;;;;;;20.61;67.92;100783.47;5069282;28;20029;-57
2023/10/10 09:44:53;;;;;;;22.30;5.35;;;;;;;20.83;69.33;100779.22;5054208;28;20037;-57
2023/10/10 09:52:58;;;;;;;14.75;5.35;;;;;;;21.60;62.19;100779.41;5075327;28;20101;-54
2023/10/10 10:00:45;;;;;;;15.45;4.97;;;;;;;22.72;56.73;100785.53;5074581;28;20028;-56
2023/10/10 10:06:54;;;;;;;17.65;4.85;;;;;;;23.58;55.76;100781.97;5074202;28;20032;-54
2023/10/10 10:09:18;;;;;;;22.02;5.88;;;;;;;23.72;53.08;100783.34;5070828;28;20225;-55
2023/10/10 10:12:04;;;;;;;14.68;5.22;;;;;;;23.96;52.62;100773.94;5074981;28;20102;-54
2023/10/10 10:14:46;;;;;;;20.23;5.25;;;;;;;24.09;51.86;100776.31;5074651;28;20055;-54
2023/10/10 10:17:26;;;;;;;18.23;5.93;;;;;;;24.56;50.97;100781.31;5074854;28;20061;-53
2023/10/10 10:20:19;;;;;;;20.58;5.43;;;;;;;25.02;50.66;100781.06;5075082;28;20036;-52
2023/10/10 10:22:44;;;;;;;15.77;5.93;;;;;;;25.54;48.49;100784.03;5075852;28;20463;-52
2023/10/10 10:25:25;;;;;;;18.42;5.00;;;;;;;25.24;48.87;100784.59;5075062;28;20080;-52
2023/10/10 10:28:00;;;;;;;16.17;5.40;;;;;;;26.01;48.09;100786.06;5076044;28;20040;-52
2023/10/10 10:32:58;;;;;;;23.85;5.60;;;;;;;26.27;46.59;100786.25;5075957;28;20064;-56
2023/10/10 10:35:58;;;;;;;14.95;5.38;;;;;;;26.04;48.55;100782.84;5074678;28;20447;-53
2023/10/10 10:38:23;;;;;;;15.25;4.85;;;;;;;25.90;47.60;100787.94;5075002;28;20033;-52
2023/10/10 10:40:50;;;;;;;22.85;5.88;;;;;;;25.97;47.18;100790.44;5075154;28;20041;-52
2023/10/10 10:43:24;;;;;;;;;;;;;;;26.53;45.53;100785.31;5074873;28;20037;-52
2023/10/10 10:46:07;;;;;;;14.75;5.10;;;;;;;26.29;45.51;100779.44;5074955;28;19961;-57
2023/10/10 10:48:35;;;;;;;16.85;5.20;;;;;;;26.20;45.95;100778.28;5075377;28;20040;-55
2023/10/10 10:51:22;;;;;;;20.65;6.07;;;;;;;26.21;46.12;100778.03;5075006;28;20028;-55
2023/10/10 10:53:56;;;;;;;17.35;6.20;;;;;;;26.48;46.18;100777.13;5073435;28;20036;-55
2023/10/10 10:59:11;;;;;;;24.30;5.53;;;;;;;26.35;46.09;100769.38;5073141;28;20036;-55
2023/10/10 11:01:43;;;;;;;14.55;5.60;;;;;;;26.32;46.94;100767.97;5073132;28;20044;-52
2023/10/10 11:04:14;;;;;;;22.45;6.28;;;;;;;26.42;46.13;100770.00;5072872;28;20042;-54
2023/10/10 11:06:50;;;;;;;17.63;6.20;;;;;;;26.79;45.48;100761.66;5073159;28;20048;-58
2023/10/10 11:09:28;;;;;;;17.17;5.30;;;;;;;26.76;44.76;100764.94;5072901;28;20079;-56
2023/10/10 11:12:05;;;;;;;18.67;5.97;;;;;;;27.07;43.97;100760.41;5072717;28;20063;-57
2023/10/10 11:14:31;;;;;;;;;;;;;;;26.96;44.12;100761.44;5073216;28;20032;-56
2023/10/10 11:16:58;;;;;;;15.77;5.40;;;;;;;26.94;44.11;100749.97;5072676;28;20283;-60
2023/10/10 11:21:56;;;;;;;16.13;5.63;;;;;;;27.35;43.19;100737.19;5072505;28;20028;-60
2023/10/10 11:24:26;;;;;;;15.07;5.03;;;;;;;27.13;42.65;100737.47;5072341;28;20036;-60
2023/10/10 11:29:42;;;;;;;23.88;5.45;;;;;;;27.11;43.76;100736.88;5072579;28;20072;-60
2023/10/10 11:32:11;;;;;;;18.77;6.78;;;;;;;26.43;43.58;100719.75;5072132;28;20052;-60
2023/10/10 11:34:46;;;;;;;21.73;8.32;;;;;;;26.33;43.05;100725.94;5072232;28;20035;-60
2023/10/10 11:37:25;;;;;;;20.38;5.43;;;;;;;25.97;42.78;100711.28;5072439;28;20472;-60
2023/10/10 11:39:57;;;;;;;16.58;5.25;;;;;;;25.72;42.86;100717.38;5072507;28;20032;-59
2023/10/10 11:42:33;;;;;;;17.40;5.43;;;;;;;25.82;44.06;100716.63;5072296;28;20036;-60
2023/10/10 11:45:01;;;;;;;15.77;5.35;;;;;;;25.78;44.24;100708.16;5072191;28;20040;-60
2023/10/10 11:47:27;;;;;;;13.73;5.53;;;;;;;25.85;43.74;100705.22;5072273;28;20052;-59
2023/10/10 11:50:01;;;;;;;14.48;5.32;;;;;;;25.68;43.12;100699.88;5072270;28;20071;-59
2023/10/10 11:52:28;;;;;;;13.52;5.85;;;;;;;25.74;42.87;100698.03;5072192;28;20033;-59
2023/10/10 11:54:58;;;;;;;;;;;;;;;25.85;42.83;100691.56;5072740;28;20044;-58
2023/10/10 11:57:34;;;;;;;14.10;5.82;;;;;;;25.90;42.51;100697.06;5073143;28;19977;-59
2023/10/10 12:00:01;;;;;;;19.05;6.10;;;;;;;25.57;41.95;100688.09;5072918;28;20041;-60
2023/10/10 12:02:29;;;;;;;18.15;5.57;;;;;;;25.65;42.09;100690.31;5073128;28;20048;-59
2023/10/10 12:04:55;;;;;;;18.65;6.13;;;;;;;25.50;42.82;100679.31;5062812;28;20044;-60
2023/10/10 12:07:24;;;;;;;16.33;6.45;;;;;;;25.60;43.45;100678.53;5059278;28;20033;-59
2023/10/10 12:09:54;;;;;;;15.82;5.40;;;;;;;25.51;42.88;100672.78;5061812;28;20036;-59
2023/10/10 12:12:21;;;;;;;18.30;5.32;;;;;;;25.76;43.44;100674.06;5061306;28;20129;-59
2023/10/10 12:14:50;;;;;;;14.68;5.60;;;;;;;26.10;43.41;100667.16;5060037;28;20388;-57
2023/10/10 12:17:17;;;;;;;16.65;5.25;;;;;;;26.54;42.49;100672.25;5059873;28;20040;-60
2023/10/10 12:19:43;;;;;;;15.68;5.47;;;;;;;26.68;42.78;100669.84;5060725;28;20029;-59
2023/10/10 12:22:10;;;;;;;21.17;6.37;;;;;;;26.97;41.85;100664.69;5052159;28;20040;-60
2023/10/10 12:24:36;;;;;;;;;;;;;;;27.09;42.13;100669.91;5061685;28;20108;-61
2023/10/10 12:27:07;;;;;;;21.07;5.83;;;;;;;26.98;41.62;100666.31;5062446;28;19952;-61
2023/10/10 12:29:34;;;;;;;13.75;5.50;;;;;;;27.35;40.88;100663.34;5061975;28;20553;-60
2023/10/10 12:32:09;;;;;;;19.02;5.97;;;;;;;27.38;40.83;100660.06;5060668;28;20409;-60
2023/10/10 12:34:34;;;;;;;15.80;5.47;;;;;;;27.63;40.60;100655.66;5059986;28;20045;-60
2023/10/10 12:36:59;;;;;;;19.42;5.45;;;;;;;27.68;40.35;100652.91;5062516;28;20032;-61
2023/10/10 12:39:27;;;;;;;13.90;4.93;;;;;;;27.74;40.47;100646.34;5060784;28;20458;-60
2023/10/10 12:41:54;;;;;;;19.67;5.88;;;;;;;27.48;40.38;100640.09;5061184;28;20033;-60
2023/10/10 12:44:20;;;;;;;17.98;5.22;;;;;;;27.53;40.49;100640.09;5066245;28;20381;-60
2023/10/10 12:46:45;;;;;;;18.00;5.15;;;;;;;27.54;41.31;100637.06;5047432;28;20094;-59
2023/10/10 12:49:11;;;;;;;17.25;5.57;;;;;;;27.79;40.35;100630.75;5065645;28;20036;-59
2023/10/10 12:51:44;;;;;;;16.45;5.85;;;;;;;27.81;41.83;100630.47;5048737;28;20048;-60
2023/10/10 12:54:13;;;;;;;17.98;5.88;;;;;;;27.91;41.38;100630.44;5062702;28;20037;-57
2023/10/10 12:56:48;;;;;;;17.58;5.55;;;;;;;28.02;40.06;100623.00;5047733;28;20119;-56
2023/10/10 12:59:18;;;;;;;15.65;5.10;;;;;;;27.98;40.69;100628.22;5072852;28;20040;-58
2023/10/10 13:01:44;;;;;;;19.70;5.22;;;;;;;28.00;40.10;100628.75;5075389;28;20127;-58
2023/10/10 13:04:11;;;;;;;16.27;5.35;;;;;;;27.92;39.30;100629.34;5075584;28;20082;-59
2023/10/10 13:06:37;;;;;;;15.65;5.60;;;;;;;27.73;39.36;100628.31;5075180;28;20120;-57
2023/10/10 13:09:08;;;;;;;18.08;5.80;;;;;;;28.16;38.44;100621.28;5075269;28;20131;-59
2023/10/10 13:11:36;;;;;;;11.48;4.72;;;;;;;28.08;38.05;100619.94;5075133;28;20044;-59
2023/10/10 13:14:24;;;;;;;15.57;6.65;;;;;;;28.08;37.69;100624.59;5074839;28;20116;-59
2023/10/10 13:19:20;;;;;;;16.23;5.63;;;;;;;28.00;35.72;100625.19;5075101;28;20083;-59
2023/10/10 13:21:52;;;;;;;14.38;5.20;;;;;;;27.70;37.37;100626.94;5074820;28;20086;-56
2023/10/10 13:24:18;;;;;;;19.05;5.60;;;;;;;27.89;36.54;100620.84;5074720;28;20033;-59
2023/10/10 13:26:49;;;;;;;16.27;6.03;;;;;;;27.48;36.90;100620.94;5068843;28;20578;-57
2023/10/10 13:29:16;;;;;;;14.07;5.95;;;;;;;27.41;35.75;100620.41;5064639;28;20278;-59
2023/10/10 13:31:41;;;;;;;20.70;6.03;;;;;;;27.36;36.11;100620.41;5063686;28;20071;-58
2023/10/10 13:34:07;;;;;;;17.60;5.40;;;;;;;27.21;36.65;100624.00;5064085;28;20120;-56
2023/10/10 13:36:32;;;;;;;11.43;4.90;;;;;;;27.22;36.92;100618.25;5064075;28;20388;-58
2023/10/10 13:38:59;;;;;;;18.65;5.55;;;;;;;27.41;37.32;100615.75;5065696;28;20037;-56
2023/10/10 13:41:28;;;;;;;18.55;5.28;;;;;;;27.19;36.89;100616.06;5068950;28;20559;-57
2023/10/10 13:43:59;;;;;;;12.77;5.78;;;;;;;27.11;36.87;100615.78;5074333;28;20043;-59
2023/10/10 13:46:27;;;;;;;17.33;5.72;;;;;;;27.14;37.35;100607.03;5070534;28;20032;-57
2023/10/10 13:48:53;;;;;;;18.35;5.95;;;;;;;26.81;36.87;100616.56;5064582;28;20037;-59
2023/10/10 13:51:19;;;;;;;15.38;5.43;;;;;;;26.95;37.17;100612.22;5063011;28;20051;-57
2023/10/10 13:53:46;;;;;;;12.93;5.22;;;;;;;26.78;37.73;100612.47;5062271;28;20048;-57
2023/10/10 13:56:13;;;;;;;;;;;;;;;26.66;37.47;100609.97;5064447;28;20032;-57
2023/10/10 13:58:47;;;;;;;12.80;5.57;;;;;;;26.51;37.89;100605.31;5064786;28;19935;-57
2023/10/10 14:01:24;;;;;;;16.85;4.60;;;;;;;26.40;38.49;100611.84;5048409;28;20525;-57
2023/10/10 14:03:56;;;;;;;14.05;4.50;;;;;;;26.34;37.71;100612.06;5063554;28;20041;-55
2023/10/10 14:06:27;;;;;;;16.95;5.97;;;;;;;26.18;37.51;100603.84;5062764;28;20111;-60
2023/10/10 14:08:52;;;;;;;13.85;4.38;;;;;;;26.14;38.45;100607.38;5063873;28;20150;-59
2023/10/10 14:11:22;;;;;;;13.32;5.20;;;;;;;25.94;38.81;100617.13;5064707;28;20033;-57
2023/10/10 14:13:54;;;;;;;17.30;5.03;;;;;;;25.95;38.55;100609.75;5065670;28;20066;-58
2023/10/10 14:16:23;;;;;;;12.82;5.22;;;;;;;25.92;38.31;100608.38;5054126;28;20099;-58
2023/10/10 14:18:51;;;;;;;14.95;4.97;;;;;;;25.81;39.61;100608.59;5054133;28;20094;-58
2023/10/10 14:21:25;;;;;;;16.67;5.65;;;;;;;25.62;39.20;100598.09;5053751;28;20483;-58
2023/10/10 14:24:13;;;;;;;15.20;5.38;;;;;;;25.53;39.66;100596.97;5053639;28;20033;-60
2023/10/10 14:26:43;;;;;;;16.25;4.88;;;;;;;25.42;39.24;100600.69;5053771;28;20151;-59
2023/10/10 14:29:12;;;;;;;13.70;5.70;;;;;;;25.36;39.20;100596.28;5053801;28;20555;-57
2023/10/10 14:31:47;;;;;;;14.68;5.35;;;;;;;25.39;40.31;100595.78;5053603;28;20041;-56
2023/10/10 14:34:24;;;;;;;20.77;5.45;;;;;;;25.39;39.72;100601.25;5053449;28;20037;-58
2023/10/10 14:36:51;;;;;;;16.15;5.38;;;;;;;25.33;39.77;100596.84;5053669;28;20039;-57
2023/10/10 14:39:31;;;;;;;19.50;5.47;;;;;;;25.32;40.79;100598.75;5053576;28;20033;-57
2023/10/10 14:41:58;;;;;;;15.25;5.68;;;;;;;25.36;40.62;100596.28;5053510;28;20029;-58
2023/10/10 14:44:26;;;;;;;16.10;4.78;;;;;;;25.34;39.94;100593.03;5053297;28;20039;-55
2023/10/10 14:46:54;;;;;;;19.23;5.07;;;;;;;25.22;40.71;100595.13;5053441;28;20050;-58
2023/10/10 14:49:28;;;;;;;16.33;5.22;;;;;;;25.14;41.07;100597.25;5053374;28;20041;-55
2023/10/10 14:51:55;;;;;;;18.55;5.80;;;;;;;25.05;40.69;100587.09;5053284;28;20049;-55
2023/10/10 14:54:21;;;;;;;15.25;5.57;;;;;;;24.97;40.56;100588.34;5053032;28;20045;-55
2023/10/10 14:56:49;;;;;;;16.40;5.63;;;;;;;24.90;40.96;100593.19;5053080;28;20041;-55
2023/10/10 14:59:17;;;;;;;17.10;5.45;;;;;;;24.85;40.95;100576.84;5053157;28;20037;-58
2023/10/10 15:01:50;;;;;;;18.75;5.22;;;;;;;24.86;40.98;100586.63;5053212;28;20040;-58
2023/10/10 15:04:17;;;;;;;15.38;5.47;;;;;;;24.87;41.05;100580.94;5052808;28;20064;-59
2023/10/10 15:06:43;;;;;;;;;;;;;;;24.85;41.23;100577.66;5052713;28;20053;-60
2023/10/10 15:09:13;;;;;;;25.58;6.53;;;;;;;24.76;41.44;100581.09;5052903;28;19973;-58
2023/10/10 15:11:43;;;;;;;16.90;5.65;;;;;;;24.79;41.44;100578.69;5052694;28;20048;-59
2023/10/10 15:14:12;;;;;;;15.68;5.60;;;;;;;24.70;42.25;100579.41;5052608;28;20040;-58
2023/10/10 15:16:39;;;;;;;17.35;5.60;;;;;;;24.65;41.14;100580.19;5052767;28;20031;-57
2023/10/10 15:19:08;;;;;;;15.85;6.10;;;;;;;24.61;41.60;100579.88;5052885;28;20042;-58
2023/10/10 15:21:35;;;;;;;16.85;5.40;;;;;;;24.54;41.06;100573.81;5052719;28;20484;-58
2023/10/10 15:24:11;;;;;;;14.88;5.65;;;;;;;24.49;41.26;100576.50;5052380;28;20048;-58
2023/10/10 15:26:40;;;;;;;14.75;5.68;;;;;;;24.43;41.05;100585.69;5052545;28;20033;-58
2023/10/10 15:29:10;;;;;;;12.60;4.68;;;;;;;24.39;41.10;100581.84;5052606;28;20037;-57
2023/10/10 15:31:35;;;;;;;16.63;5.32;;;;;;;24.34;40.99;100579.06;5052573;28;20068;-57
2023/10/10 15:34:01;;;;;;;11.90;5.40;;;;;;;24.26;41.66;100577.59;5052308;28;20130;-57
2023/10/10 15:36:32;;;;;;;16.88;5.07;;;;;;;24.23;42.01;100574.56;5052460;28;20179;-58
2023/10/10 15:39:03;;;;;;;15.25;5.55;;;;;;;24.14;41.63;100579.63;5052516;28;20539;-57
2023/10/10 15:41:31;;;;;;;20.63;6.10;;;;;;;24.08;41.90;100586.09;5052292;28;20037;-59
2023/10/10 15:44:02;;;;;;;;;;;;;;;24.05;42.06;100583.88;5052445;28;20033;-58
2023/10/10 15:46:29;;;;;;;15.27;6.03;;;;;;;24.00;41.13;100578.38;5052221;28;19923;-58
2023/10/10 15:48:55;;;;;;;18.85;5.35;;;;;;;23.92;41.15;100581.53;5052277;28;20080;-56
2023/10/10 15:51:21;;;;;;;17.80;5.47;;;;;;;23.86;41.02;100577.91;5052179;28;20395;-57
2023/10/10 15:53:48;;;;;;;16.45;5.70;;;;;;;23.78;41.28;100578.38;5052000;28;20028;-57
2023/10/10 15:56:15;;;;;;;15.77;5.18;;;;;;;23.73;41.39;100589.16;5051996;28;20049;-57
2023/10/10 15:58:49;;;;;;;17.17;5.78;;;;;;;23.63;41.08;100578.19;5052164;28;20024;-58
2023/10/10 16:01:21;;;;;;;14.15;5.93;;;;;;;23.57;40.82;100579.97;5052102;28;20033;-56
2023/10/10 16:04:05;;;;;;;15.85;5.18;;;;;;;23.48;40.57;100570.59;5051895;28;20481;-57
2023/10/10 16:06:35;;;;;;;22.63;6.50;;;;;;;23.40;40.66;100573.72;5052006;28;20039;-54
2023/10/10 16:09:12;;;;;;;18.83;6.13;;;;;;;23.33;40.37;100573.09;5052139;28;20083;-56
2023/10/10 16:11:43;;;;;;;18.85;6.10;;;;;;;23.27;40.81;100569.47;5051837;28;20480;-55
2023/10/10 16:14:11;;;;;;;21.70;6.10;;;;;;;23.18;40.67;100569.06;5051757;28;20549;-57
2023/10/10 16:16:44;;;;;;;18.95;6.55;;;;;;;23.11;41.44;100576.56;5051643;28;20044;-55
2023/10/10 16:19:21;;;;;;;19.42;6.38;;;;;;;23.01;42.35;100570.97;5051973;28;20063;-57
2023/10/10 16:21:50;;;;;;;18.60;5.85;;;;;;;22.90;42.96;100571.91;5051745;28;20033;-57
2023/10/10 16:24:16;;;;;;;13.13;6.10;;;;;;;22.74;43.77;100574.31;5051682;28;20052;-58
2023/10/10 16:26:43;;;;;;;29.23;6.15;;;;;;;22.48;44.81;100578.47;5051791;28;20500;-60
2023/10/10 16:29:11;;;;;;;19.90;6.10;;;;;;;22.33;46.94;100585.50;5051972;28;20037;-57
2023/10/10 16:31:36;;;;;;;15.60;5.32;;;;;;;22.22;45.99;100581.75;5051855;28;20411;-60
2023/10/10 16:34:03;;;;;;;15.93;5.13;;;;;;;22.07;47.90;100581.44;5051522;28;20116;-58
2023/10/10 16:36:29;;;;;;;15.00;6.33;;;;;;;22.00;49.22;100586.19;5051688;28;20052;-60
2023/10/10 16:38:55;;;;;;;19.08;5.30;;;;;;;21.72;50.96;100589.69;5051774;28;20053;-53
2023/10/10 16:41:24;;;;;;;21.83;5.00;;;;;;;21.39;53.72;100581.09;5051471;28;20449;-59
2023/10/10 16:43:49;;;;;;;21.45;5.75;;;;;;;21.21;55.49;100581.19;5051317;28;20063;-56
2023/10/10 16:46:15;;;;;;;15.48;5.88;;;;;;;21.15;57.28;100584.84;5051499;28;20037;-57
2023/10/10 16:48:45;;;;;;;22.75;5.35;;;;;;;20.93;60.65;100592.69;5051626;28;20033;-57
2023/10/10 16:51:13;;;;;;;18.10;6.18;;;;;;;20.73;63.09;100584.03;5051452;28;20037;-57
2023/10/10 16:53:45;;;;;;;;;;;;;;;20.57;64.82;100583.66;5051669;28;20552;-56
2023/10/10 16:56:12;;;;;;;12.38;5.55;;;;;;;20.49;65.59;100580.47;5051379;28;19948;-58
2023/10/10 16:58:39;;;;;;;;;;;;;;;20.37;66.85;100582.25;5051997;28;20053;-57
2023/10/10 17:01:20;;;;;;;21.75;5.28;;;;;;;20.12;67.78;100585.09;5051443;28;19942;-57
2023/10/10 17:03:48;;;;;;;15.25;5.75;;;;;;;19.99;66.89;100586.09;5051235;28;20032;-59
2023/10/10 17:06:22;;;;;;;18.92;6.78;;;;;;;19.79;68.80;100586.31;5051205;28;20464;-58
2023/10/10 17:08:47;;;;;;;19.60;6.07;;;;;;;19.67;70.81;100588.13;5051536;28;20040;-55
2023/10/10 17:11:14;;;;;;;21.38;6.75;;;;;;;19.50;72.67;100585.97;5051408;28;20476;-67
2023/10/10 17:13:41;;;;;;;21.73;7.63;;;;;;;19.35;74.29;100593.59;5051157;28;20040;-67
2023/10/10 17:16:13;;;;;;;15.77;6.03;;;;;;;19.30;74.94;100604.25;5051255;28;20287;-67
2023/10/10 17:18:42;;;;;;;18.02;6.40;;;;;;;19.16;75.88;100602.69;5051293;28;20487;-67
2023/10/10 17:21:12;;;;;;;17.02;6.25;;;;;;;19.03;77.28;100592.84;5051171;28;20053;-67
2023/10/10 17:23:41;;;;;;;21.95;6.53;;;;;;;18.94;78.56;100600.41;5050981;28;20033;-66
2023/10/10 17:26:10;;;;;;;16.08;7.03;;;;;;;18.86;78.18;100597.97;5051189;28;20450;-67
2023/10/10 17:28:37;;;;;;;17.55;6.03;;;;;;;18.72;78.09;100592.91;5052156;28;20029;-69
2023/10/10 17:31:04;;;;;;;15.93;5.95;;;;;;;18.66;77.92;100589.16;5054677;28;20029;-66
2023/10/10 17:33:29;;;;;;;23.03;7.00;;;;;;;18.59;78.40;100591.09;5054684;28;20036;-66
2023/10/10 17:35:56;;;;;;;17.95;6.80;;;;;;;18.57;79.85;100598.53;5054677;28;20692;-66